Terminal Aerodrome Forecast
Issued by NWS

Home | Current Version | Previous Version | Graphics & Text | Print | Product List | Glossary On
Versions: 1 2 3 4 5 6 7 8 9 10 11 12 13 14 15 16 17 18 19 20
725
FTUS43 KOAX 271144
TAFCDR
TAF
KCDR 271144Z 2712/2812 VRB03KT 1/2SM FZFG VV002
     FM271330 21007KT P6SM SCT200
     FM280300 12007KT P6SM -SHRA OVC050
     FM280900 12007KT 6SM -RA OVC015=

USA.gov is the U.S. government's official web portal to all federal, state and local government web resources and services.